Time;durP1;ratioP1;P1;durP2;ratioP2;P2;SDS_P1;SDS_P2;PMS_P1;PMS_P2;Temp;Humidity;BMP_temperature;BMP_pressure;BME280_temperature;BME280_humidity;BME280_pressure;Samples;Min_cycle;Max_cycle;Signal;HPM_P1;HPM_P2
2022/12/18 05:22:34;;;;;;;4.68;3.35;;;;;;;-8.64;100.00;101523.97;5109174;27;20387;-73
2022/12/18 05:24:59;;;;;;;8.40;3.03;;;;;;;-8.61;100.00;101523.06;5109354;28;20035;-73
2022/12/18 05:27:24;;;;;;;11.48;5.35;;;;;;;-8.56;100.00;101529.91;5109327;28;20032;-73
2022/12/18 05:29:50;;;;;;;14.90;7.72;;;;;;;-8.48;100.00;101525.50;5109347;28;20036;-73
2022/12/18 05:32:15;;;;;;;17.98;6.43;;;;;;;-8.41;100.00;101520.22;5109295;28;20108;-74
2022/12/18 05:34:40;;;;;;;13.55;8.15;;;;;;;-8.40;100.00;101514.19;5109155;28;20036;-74
2022/12/18 05:37:06;;;;;;;16.38;7.97;;;;;;;-8.32;100.00;101533.00;5109002;28;20101;-73
2022/12/18 05:39:31;;;;;;;11.38;5.60;;;;;;;-8.30;100.00;101523.47;5109110;28;20031;-74
2022/12/18 05:41:56;;;;;;;12.82;7.57;;;;;;;-8.27;100.00;101531.19;5108827;28;20032;-74
2022/12/18 05:44:22;;;;;;;14.13;4.93;;;;;;;-8.26;100.00;101526.00;5109074;28;20040;-74
2022/12/18 05:46:47;;;;;;;21.85;9.25;;;;;;;-8.26;100.00;101536.34;5108927;28;20032;-75
2022/12/18 05:49:13;;;;;;;26.05;7.10;;;;;;;-8.26;100.00;101523.41;5109551;28;20429;-74
2022/12/18 05:51:38;;;;;;;30.27;9.45;;;;;;;-8.21;100.00;101520.75;5109800;28;20078;-74
2022/12/18 05:54:03;;;;;;;15.75;7.65;;;;;;;-8.21;100.00;101516.44;5110468;28;20040;-74
2022/12/18 05:56:29;;;;;;;25.13;9.48;;;;;;;-8.00;100.00;101532.50;5110315;28;20040;-72
2022/12/18 05:58:55;;;;;;;19.75;9.48;;;;;;;-8.00;100.00;101528.19;5109160;28;20110;-73
2022/12/18 06:01:23;;;;;;;23.55;10.75;;;;;;;-7.95;100.00;101530.69;5108417;28;20369;-73
2022/12/18 06:03:49;;;;;;;15.23;8.35;;;;;;;-7.94;100.00;101541.00;5108853;28;20074;-73
2022/12/18 06:06:23;;;;;;;16.23;9.48;;;;;;;-7.89;100.00;101538.31;5108467;28;20069;-73
2022/12/18 06:08:49;;;;;;;28.48;8.13;;;;;;;-7.89;100.00;101545.22;5108565;28;20166;-72
2022/12/18 06:11:34;;;;;;;11.63;8.88;;;;;;;-7.89;100.00;101534.88;5108127;28;20048;-73
2022/12/18 06:14:00;;;;;;;20.58;9.45;;;;;;;-7.83;100.00;101545.13;5107329;28;20051;-72
2022/12/18 06:16:27;;;;;;;21.80;9.85;;;;;;;-7.85;100.00;101549.50;5109072;28;20036;-73
2022/12/18 06:18:53;;;;;;;23.87;8.33;;;;;;;-7.84;100.00;101546.88;5107214;28;20036;-73
2022/12/18 06:21:19;;;;;;;25.15;7.25;;;;;;;-7.78;100.00;101553.69;5107884;28;20043;-73
2022/12/18 06:23:44;;;;;;;26.02;9.65;;;;;;;-7.80;100.00;101551.13;5106935;28;20128;-72
2022/12/18 06:26:12;;;;;;;20.42;9.13;;;;;;;-7.79;100.00;101559.75;5108220;28;20097;-72
2022/12/18 06:28:38;;;;;;;19.25;9.73;;;;;;;-7.73;100.00;101570.84;5108322;28;20032;-73
2022/12/18 06:31:04;;;;;;;35.17;11.57;;;;;;;-7.78;100.00;101567.47;5100434;28;20477;-74
2022/12/18 06:33:30;;;;;;;39.33;10.40;;;;;;;-7.68;100.00;101575.97;5081520;28;20520;-73
2022/12/18 06:36:07;;;;;;;28.77;9.75;;;;;;;-7.64;100.00;101580.19;5073633;28;20040;-73
2022/12/18 06:38:34;;;;;;;16.00;8.93;;;;;;;-7.60;100.00;101579.25;5074531;28;20170;-74
2022/12/18 06:41:00;;;;;;;39.72;10.23;;;;;;;-7.57;100.00;101579.19;5075336;28;20029;-73
2022/12/18 06:43:25;;;;;;;31.42;9.80;;;;;;;-7.53;100.00;101586.03;5075495;28;20389;-73
2022/12/18 06:45:52;;;;;;;30.63;10.85;;;;;;;-7.57;100.00;101588.69;5074065;28;20037;-73
2022/12/18 06:48:21;;;;;;;18.92;8.82;;;;;;;-7.53;100.00;101593.81;5073230;28;20044;-73
2022/12/18 06:50:47;;;;;;;16.30;7.38;;;;;;;-7.52;100.00;101587.75;5073916;28;20045;-73
2022/12/18 06:53:12;;;;;;;19.95;8.80;;;;;;;-7.49;100.00;101592.88;5074216;28;20029;-73
2022/12/18 06:55:38;;;;;;;36.38;11.32;;;;;;;-7.48;100.00;101589.41;5074024;28;20040;-73
2022/12/18 06:58:03;;;;;;;20.30;8.60;;;;;;;-7.48;100.00;101585.97;5074025;28;20044;-74
2022/12/18 07:00:28;;;;;;;36.88;11.55;;;;;;;-7.44;100.00;101592.78;5073904;28;20029;-73
2022/12/18 07:02:54;;;;;;;30.65;10.70;;;;;;;-7.42;100.00;101593.63;5073903;28;20039;-72
2022/12/18 07:05:19;;;;;;;27.80;10.35;;;;;;;-7.38;100.00;101595.25;5073668;28;20091;-74
2022/12/18 07:07:44;;;;;;;22.65;9.05;;;;;;;-7.34;100.00;101594.34;5073956;28;20119;-72
2022/12/18 07:10:10;;;;;;;16.48;9.23;;;;;;;-7.35;100.00;101594.38;5073422;28;20401;-73
2022/12/18 07:12:35;;;;;;;31.38;10.50;;;;;;;-7.34;100.00;101593.50;5073594;28;20119;-73
2022/12/18 07:15:01;;;;;;;26.73;8.52;;;;;;;-7.39;100.00;101591.81;5072397;28;20447;-72
2022/12/18 07:17:27;;;;;;;26.80;10.95;;;;;;;-7.31;100.00;101596.00;5073570;28;20059;-72
2022/12/18 07:19:52;;;;;;;23.67;10.70;;;;;;;-7.24;100.00;101597.59;5073540;28;20432;-73
2022/12/18 07:22:18;;;;;;;31.15;8.75;;;;;;;-7.29;100.00;101595.13;5073221;28;20032;-72
2022/12/18 07:24:43;;;;;;;32.92;10.00;;;;;;;-7.30;100.00;101598.59;5073550;28;20078;-73
2022/12/18 07:27:08;;;;;;;17.45;9.65;;;;;;;-7.28;100.00;101595.97;5073330;28;20033;-73
2022/12/18 07:29:34;;;;;;;26.08;10.70;;;;;;;-7.31;100.00;101603.78;5072188;28;20036;-73
2022/12/18 07:31:59;;;;;;;26.73;9.80;;;;;;;-7.28;100.00;101603.75;5071201;28;20093;-74
2022/12/18 07:34:25;;;;;;;16.88;8.57;;;;;;;-7.29;100.00;101604.63;5073205;28;20036;-73
2022/12/18 07:36:50;;;;;;;14.75;8.77;;;;;;;-7.34;100.00;101612.47;5072996;28;20400;-72
2022/12/18 07:39:15;;;;;;;21.98;8.00;;;;;;;-7.28;100.00;101616.69;5073214;28;20680;-73
2022/12/18 07:42:30;;;;;;;38.75;10.63;;;;;;;-7.29;100.00;101605.47;5073021;28;20033;-73
2022/12/18 07:44:29;;;;;;;23.30;9.02;;;;;;;-7.35;100.00;101610.75;5072303;28;20112;-73
2022/12/18 07:46:55;;;;;;;23.13;8.52;;;;;;;-7.29;100.00;101620.16;5071675;28;20051;-73
2022/12/18 07:49:20;;;;;;;21.85;7.78;;;;;;;-7.29;100.00;101620.16;5072942;28;20036;-73
2022/12/18 07:51:48;;;;;;;16.25;9.88;;;;;;;-7.26;100.00;101626.13;5072658;28;20503;-72
2022/12/18 07:54:14;;;;;;;20.92;8.88;;;;;;;-7.25;100.00;101624.38;5072880;28;20062;-73
2022/12/18 07:56:39;;;;;;;18.08;8.80;;;;;;;-7.23;100.00;101631.28;5072831;28;20485;-73
2022/12/18 07:59:05;;;;;;;25.02;10.20;;;;;;;-7.16;100.00;101642.38;5071604;28;20069;-73
2022/12/18 08:01:31;;;;;;;21.88;7.50;;;;;;;-7.17;100.00;101643.25;5072463;28;20520;-73
2022/12/18 08:03:57;;;;;;;28.98;9.32;;;;;;;-7.24;100.00;101636.44;5072596;28;20086;-73
2022/12/18 08:06:22;;;;;;;27.42;8.73;;;;;;;-7.26;100.00;101646.00;5072708;28;20040;-72
2022/12/18 08:08:48;;;;;;;40.15;11.00;;;;;;;-7.20;100.00;101653.66;5072979;28;20446;-71
2022/12/18 08:11:13;;;;;;;21.05;9.00;;;;;;;-7.18;100.00;101649.28;5072556;28;20043;-74
2022/12/18 08:13:38;;;;;;;34.00;9.65;;;;;;;-7.18;100.00;101644.97;5071366;28;20488;-74
2022/12/18 08:16:06;;;;;;;18.25;7.43;;;;;;;-7.22;100.00;101642.47;5071210;28;20040;-74
2022/12/18 08:18:33;;;;;;;15.68;7.20;;;;;;;-7.22;100.00;101642.47;5072449;28;20115;-73
2022/12/18 08:21:15;;;;;;;16.25;7.63;;;;;;;-7.25;100.00;101643.38;5072179;28;20115;-74
2022/12/18 08:23:40;;;;;;;25.23;9.15;;;;;;;-7.15;100.00;101650.13;5072511;28;20119;-73
2022/12/18 08:26:06;;;;;;;22.63;9.82;;;;;;;-7.14;100.00;101653.56;5072572;28;20107;-73
2022/12/18 08:28:32;;;;;;;16.25;8.57;;;;;;;-7.12;100.00;101638.84;5089597;28;20031;-73
2022/12/18 08:30:58;;;;;;;22.48;8.80;;;;;;;-7.08;100.00;101637.06;5090006;28;20473;-73
2022/12/18 08:33:23;;;;;;;18.85;7.88;;;;;;;-7.08;100.00;101640.50;5091083;28;20139;-73
2022/12/18 08:35:48;;;;;;;20.00;8.60;;;;;;;-6.97;100.00;101633.41;5091876;28;20044;-74
2022/12/18 08:38:14;;;;;;;18.77;9.13;;;;;;;-7.03;100.00;101630.91;5092253;28;20122;-65
2022/12/18 08:40:39;;;;;;;22.20;7.20;;;;;;;-7.12;100.00;101616.38;5091866;28;20062;-70
2022/12/18 08:45:50;;;;;;;24.88;9.52;;;;;;;-6.94;100.00;101622.09;5091380;28;20101;-70
2022/12/18 08:48:15;;;;;;;18.40;9.30;;;;;;;-7.16;100.00;101614.75;5092644;28;20030;-70
2022/12/18 08:50:40;;;;;;;24.95;11.15;;;;;;;-7.25;100.00;101599.34;5093128;28;20397;-70
2022/12/18 08:53:06;;;;;;;17.73;8.55;;;;;;;-7.09;100.00;101607.72;5093656;28;20469;-69
2022/12/18 08:55:31;;;;;;;26.88;9.65;;;;;;;-6.98;100.00;101608.34;5092295;28;20039;-70
2022/12/18 08:57:57;;;;;;;23.58;9.10;;;;;;;-7.00;100.00;101602.34;5092677;28;20024;-70
2022/12/18 09:00:22;;;;;;;28.17;11.25;;;;;;;-6.93;100.00;101603.94;5091983;28;20042;-70
2022/12/18 09:02:48;;;;;;;30.00;12.52;;;;;;;-7.03;100.00;101599.81;5091391;28;20044;-70
2022/12/18 09:05:13;;;;;;;20.75;8.98;;;;;;;-7.04;100.00;101592.06;5092728;28;20451;-70
2022/12/18 09:07:39;;;;;;;19.70;10.00;;;;;;;-6.98;100.00;101590.19;5090947;28;20089;-70
2022/12/18 09:10:05;;;;;;;19.63;9.60;;;;;;;-7.01;100.00;101577.31;5092092;28;20043;-71
2022/12/18 09:12:30;;;;;;;34.55;10.02;;;;;;;-7.01;100.00;101590.28;5091370;28;20127;-70
2022/12/18 09:14:56;;;;;;;20.02;6.57;;;;;;;-7.07;100.00;101587.81;5092093;28;20111;-70
2022/12/18 09:17:22;;;;;;;24.08;10.10;;;;;;;-7.00;100.00;101602.34;5084320;28;20440;-70
2022/12/18 09:19:47;;;;;;;19.08;10.30;;;;;;;-7.04;100.00;101605.91;5083332;28;20455;-68
2022/12/18 09:22:12;;;;;;;14.52;6.28;;;;;;;-7.09;100.00;101618.06;5084630;28;20072;-69
2022/12/18 09:24:38;;;;;;;20.42;9.63;;;;;;;-7.11;100.00;101609.44;5084535;28;20511;-68
2022/12/18 09:27:03;;;;;;;17.77;7.50;;;;;;;-7.00;100.00;101609.25;5085712;28;20157;-68
2022/12/18 09:29:29;;;;;;;29.27;10.10;;;;;;;-6.91;100.00;101617.72;5088312;28;20093;-70
2022/12/18 09:31:54;;;;;;;20.67;9.38;;;;;;;-6.76;100.00;101626.09;5091034;28;20043;-68
2022/12/18 09:34:21;;;;;;;27.33;10.18;;;;;;;-6.68;100.00;101630.22;5092118;28;20124;-68
2022/12/18 09:36:47;;;;;;;24.87;8.00;;;;;;;-6.60;100.00;101630.06;5091380;28;20131;-71
2022/12/18 09:39:12;;;;;;;21.17;7.85;;;;;;;-6.58;100.00;101649.91;5091882;28;20075;-71
2022/12/18 09:41:49;;;;;;;23.17;8.13;;;;;;;-6.61;100.00;101649.09;5091099;28;20384;-69
2022/12/18 09:44:22;;;;;;;17.33;9.52;;;;;;;-6.53;100.00;101639.44;5074145;28;20366;-70
2022/12/18 09:47:00;;;;;;;21.42;8.75;;;;;;;-6.42;100.00;101640.06;5091738;28;20036;-70
2022/12/18 09:49:30;;;;;;;29.23;10.05;;;;;;;-6.43;100.00;101634.94;5073895;28;20123;-68
2022/12/18 09:51:59;;;;;;;33.63;10.88;;;;;;;-6.30;100.00;101629.44;5090545;28;20040;-69
2022/12/18 09:54:33;;;;;;;21.70;9.10;;;;;;;-6.19;100.00;101644.78;5091216;28;20024;-69
2022/12/18 09:56:58;;;;;;;17.58;9.57;;;;;;;-6.13;100.00;101647.25;5093198;28;20389;-68
2022/12/18 09:59:31;;;;;;;27.45;9.52;;;;;;;-6.16;100.00;101649.91;5086617;28;20026;-67
2022/12/18 10:01:57;;;;;;;27.90;9.98;;;;;;;-6.05;100.00;101647.09;5085676;28;20028;-68
2022/12/18 10:04:24;;;;;;;31.63;8.95;;;;;;;-6.18;100.00;101662.06;5082630;28;20047;-68
2022/12/18 10:07:09;;;;;;;20.05;8.57;;;;;;;-6.17;100.00;101662.91;5070853;28;20044;-66
2022/12/18 10:09:53;;;;;;;19.73;9.40;;;;;;;-6.13;100.00;101662.81;5074665;28;20032;-55
2022/12/18 10:13:04;;;;;;;24.30;8.18;;;;;;;-6.13;100.00;101668.00;5073705;28;20044;-58
2022/12/18 10:15:54;;;;;;;18.95;7.18;;;;;;;-6.12;100.00;101671.47;5082589;28;20139;-68
2022/12/18 10:18:19;;;;;;;18.40;8.82;;;;;;;-6.10;100.00;101664.47;5093746;28;20021;-68
2022/12/18 10:20:52;;;;;;;23.38;10.15;;;;;;;-6.04;100.00;101660.00;5111433;28;20043;-69
2022/12/18 10:23:45;;;;;;;28.05;8.55;;;;;;;-6.13;100.00;101659.34;5115364;28;20039;-68
2022/12/18 10:26:12;;;;;;;24.80;9.00;;;;;;;-6.24;100.00;101648.38;5115078;28;20489;-68
2022/12/18 10:28:39;;;;;;;26.35;8.27;;;;;;;-6.37;100.00;101640.00;5115244;28;20031;-68
2022/12/18 10:31:16;;;;;;;28.48;9.18;;;;;;;-6.34;100.00;101639.91;5109771;28;20044;-68
2022/12/18 10:33:42;;;;;;;23.20;9.00;;;;;;;-6.41;100.00;101623.63;5094571;28;20040;-69
2022/12/18 10:36:08;;;;;;;24.98;8.57;;;;;;;-6.42;100.00;101621.91;5094293;28;20032;-69
2022/12/18 10:38:33;;;;;;;11.23;6.57;;;;;;;-6.38;100.00;101639.13;5076504;28;20047;-69
2022/12/18 10:41:01;;;;;;;33.83;10.35;;;;;;;-6.23;100.00;101637.94;5094360;28;20032;-68
2022/12/18 10:43:30;;;;;;;31.95;10.35;;;;;;;-6.13;100.00;101638.59;5095581;28;20048;-68
2022/12/18 10:46:07;;;;;;;26.40;9.10;;;;;;;-6.28;100.00;101640.63;5095111;28;20548;-70
2022/12/18 10:48:39;;;;;;;17.33;9.70;;;;;;;-6.09;100.00;101640.25;5096210;28;20129;-68
2022/12/18 10:51:06;;;;;;;26.15;11.38;;;;;;;-6.07;100.00;101641.06;5099066;28;20039;-68
2022/12/18 10:53:34;;;;;;;25.93;9.63;;;;;;;-5.99;100.00;101615.81;5097070;28;20039;-68
2022/12/18 10:55:59;;;;;;;;;;;;;;;-6.11;100.00;101629.91;5104052;28;20559;-68
2022/12/18 10:58:26;;;;;;;16.23;6.90;;;;;;;-6.17;100.00;101627.44;5108750;28;19976;-68
2022/12/18 11:01:09;;;;;;;21.50;8.18;;;;;;;-6.17;100.00;101624.84;5098007;28;20032;-69
2022/12/18 11:03:37;;;;;;;18.55;8.23;;;;;;;-6.29;100.00;101618.19;5095979;28;20040;-69
2022/12/18 11:06:04;;;;;;;20.52;7.18;;;;;;;-6.17;100.00;101608.44;5095526;28;20040;-68
2022/12/18 11:08:30;;;;;;;22.75;10.45;;;;;;;-6.20;100.00;101632.69;5096371;28;20032;-70
2022/12/18 11:10:55;;;;;;;16.35;9.15;;;;;;;-6.02;100.00;101641.81;5094411;28;20043;-69
2022/12/18 11:13:23;;;;;;;26.35;10.50;;;;;;;-5.98;100.00;101635.69;5096131;28;20108;-68
2022/12/18 11:15:50;;;;;;;15.30;8.80;;;;;;;-5.83;100.00;101635.28;5095845;28;20032;-69
2022/12/18 11:18:20;;;;;;;29.20;12.88;;;;;;;-5.76;100.00;101638.59;5080904;28;20090;-68
2022/12/18 11:20:58;;;;;;;34.60;10.55;;;;;;;-5.49;100.00;101642.28;5075429;28;20032;-68
2022/12/18 11:23:24;;;;;;;28.70;9.73;;;;;;;-5.35;100.00;101628.94;5073338;28;20048;-68
2022/12/18 11:25:53;;;;;;;32.17;11.18;;;;;;;-5.34;100.00;101628.94;5073150;28;20562;-69
2022/12/18 11:28:46;;;;;;;29.58;12.40;;;;;;;-4.84;100.00;101621.53;5073696;28;20083;-68
2022/12/18 11:31:15;;;;;;;21.10;8.57;;;;;;;-4.64;100.00;101624.44;5095809;22;20052;-61
2022/12/18 11:33:45;;;;;;;27.27;12.32;;;;;;;-4.56;100.00;101620.78;5072930;28;20044;-62
2022/12/18 11:36:11;;;;;;;30.02;10.80;;;;;;;-4.28;100.00;101616.47;5072747;28;20047;-62
2022/12/18 11:38:43;;;;;;;22.60;12.13;;;;;;;-3.82;97.28;101613.31;5072846;28;20038;-63
2022/12/18 11:44:22;;;;;;;20.65;9.48;;;;;;;-3.36;93.28;101600.53;5092871;28;20099;-63
2022/12/18 11:46:54;;;;;;;22.08;9.10;;;;;;;-3.17;91.12;101601.63;5092636;28;20396;-64
2022/12/18 11:49:28;;;;;;;26.17;9.90;;;;;;;-2.73;90.40;101607.03;5093143;28;20032;-64
2022/12/18 11:52:16;;;;;;;29.63;11.95;;;;;;;-2.69;87.78;101602.53;5092370;28;20024;-64
2022/12/18 11:54:41;;;;;;;27.85;12.52;;;;;;;-2.54;86.46;101589.81;5092804;28;20044;-64
2022/12/18 11:57:23;;;;;;;30.45;10.50;;;;;;;-2.75;87.34;101585.34;5091437;28;20111;-63
2022/12/18 12:00:00;;;;;;;23.40;9.07;;;;;;;-2.18;88.71;101576.25;5092707;28;20024;-64
2022/12/18 12:02:42;;;;;;;22.15;11.70;;;;;;;-2.31;85.64;101568.03;5092562;28;20059;-64
2022/12/18 12:05:10;;;;;;;30.98;10.27;;;;;;;-3.11;86.68;101580.56;5092824;28;20418;-63
2022/12/18 12:07:42;;;;;;;25.35;11.57;;;;;;;-2.50;87.12;101580.09;5092849;28;20046;-63
2022/12/18 12:10:28;;;;;;;37.53;11.90;;;;;;;-2.50;86.04;101565.28;5093783;28;20035;-62
2022/12/18 12:13:03;;;;;;;26.42;11.57;;;;;;;-2.56;85.67;101559.44;5092644;28;20039;-61
2022/12/18 12:15:42;;;;;;;24.35;10.80;;;;;;;-2.54;86.05;101558.50;5092506;28;20055;-62
2022/12/18 12:18:22;;;;;;;24.70;10.68;;;;;;;-2.66;87.70;101545.06;5092309;28;20477;-62
2022/12/18 12:21:22;;;;;;;24.67;10.50;;;;;;;-3.05;89.74;101545.59;5092250;28;20029;-62
2022/12/18 12:24:12;;;;;;;21.00;9.60;;;;;;;-2.84;90.80;101547.44;5091010;28;20054;-62
2022/12/18 12:26:52;;;;;;;23.45;10.50;;;;;;;-3.06;92.17;101551.72;5091826;28;20551;-63
2022/12/18 12:29:43;;;;;;;29.08;9.75;;;;;;;-2.76;93.56;101557.56;5092185;28;20039;-63
2022/12/18 12:32:17;;;;;;;25.70;9.98;;;;;;;-2.51;91.52;101566.19;5091432;28;20453;-63
2022/12/18 12:34:55;;;;;;;28.60;11.00;;;;;;;-2.56;89.49;101569.88;5092210;28;20127;-61
2022/12/18 12:37:36;;;;;;;20.08;9.55;;;;;;;-3.18;90.34;101573.84;5092025;28;20040;-63
2022/12/18 12:40:03;;;;;;;27.08;11.18;;;;;;;-2.99;93.25;101581.03;5091855;28;20055;-62
2022/12/18 12:45:32;;;;;;;28.40;11.40;;;;;;;-2.42;90.26;101564.13;5091669;28;20085;-63
2022/12/18 12:48:01;;;;;;;40.78;12.45;;;;;;;-2.67;89.64;101570.28;5091991;28;20475;-61
2022/12/18 12:50:27;;;;;;;33.22;11.57;;;;;;;-2.85;89.73;101563.97;5091386;28;20036;-62
2022/12/18 12:52:57;;;;;;;21.00;10.48;;;;;;;-2.83;91.10;101571.75;5091690;28;20043;-62
2022/12/18 12:55:26;;;;;;;31.38;11.95;;;;;;;-2.69;91.10;101569.47;5091497;28;20042;-63
2022/12/18 12:58:31;;;;;;;25.55;11.23;;;;;;;-3.06;94.69;101565.59;5090152;28;20066;-61
2022/12/18 13:01:37;;;;;;;23.85;12.68;;;;;;;-2.75;93.18;101554.91;5072863;28;20036;-61
2022/12/18 13:04:08;;;;;;;25.50;10.38;;;;;;;-2.65;91.14;101536.31;5061232;28;20047;-62
2022/12/18 13:06:37;;;;;;;33.05;12.13;;;;;;;-2.70;91.43;101535.63;5091293;28;20040;-63
2022/12/18 13:09:03;;;;;;;23.00;11.15;;;;;;;-2.54;89.86;101523.72;5091686;28;20501;-63
2022/12/18 13:14:29;;;;;;;28.63;11.68;;;;;;;-3.01;93.73;101524.56;5092032;28;20043;-62
2022/12/18 13:17:30;;;;;;;19.42;9.45;;;;;;;-3.28;95.09;101522.94;5092087;28;20047;-62
2022/12/18 13:20:05;;;;;;;26.63;12.00;;;;;;;-3.02;94.23;101517.66;5028596;28;20053;-62
2022/12/18 13:22:38;;;;;;;27.50;11.20;;;;;;;-3.04;94.44;101508.19;5082466;28;20143;-62
2022/12/18 13:25:27;;;;;;;22.13;12.90;;;;;;;-2.97;95.13;101512.28;5091321;28;20032;-62
2022/12/18 13:28:01;;;;;;;25.05;10.52;;;;;;;-3.03;94.17;101502.91;5091112;28;20032;-62
2022/12/18 13:30:33;;;;;;;23.38;10.88;;;;;;;-3.24;95.77;101495.03;5090781;28;20039;-62
2022/12/18 13:33:13;;;;;;;16.45;9.63;;;;;;;-3.26;95.94;101487.28;5091257;28;20044;-62
2022/12/18 13:35:41;;;;;;;31.23;11.68;;;;;;;-3.23;95.85;101481.09;5091035;28;20032;-63
2022/12/18 13:38:26;;;;;;;25.80;11.07;;;;;;;-3.18;94.84;101474.81;5091332;28;20039;-64
2022/12/18 13:40:54;;;;;;;23.42;9.23;;;;;;;-3.33;96.02;101483.16;5090791;28;20036;-63
2022/12/18 13:43:20;;;;;;;22.83;10.05;;;;;;;-3.30;97.52;101477.84;5093348;28;20075;-61
2022/12/18 13:46:19;;;;;;;28.08;10.48;;;;;;;-3.56;98.29;101464.00;5095356;28;20063;-62
2022/12/18 13:49:10;;;;;;;20.10;10.60;;;;;;;-3.52;98.86;101456.94;5095118;28;20079;-63
2022/12/18 13:51:41;;;;;;;30.30;10.98;;;;;;;-3.41;99.52;101469.56;5076840;28;20032;-62
2022/12/18 13:54:19;;;;;;;25.98;10.75;;;;;;;-3.34;98.87;101471.03;5085359;28;20033;-62
2022/12/18 13:56:47;;;;;;;30.02;10.40;;;;;;;-3.38;99.60;101477.28;5084706;28;20060;-62
2022/12/18 13:59:18;;;;;;;32.67;13.35;;;;;;;-3.44;99.99;101469.69;5080252;28;20031;-62
2022/12/18 14:01:51;;;;;;;25.55;12.20;;;;;;;-3.56;100.00;101465.75;5082335;28;20086;-61
2022/12/18 14:04:30;;;;;;;23.77;11.80;;;;;;;-3.52;100.00;101471.69;5081878;28;20036;-59
2022/12/18 14:07:05;;;;;;;24.38;10.65;;;;;;;-3.47;100.00;101473.22;5082989;28;20105;-62
2022/12/18 14:09:36;;;;;;;29.65;12.07;;;;;;;-3.47;99.87;101457.59;5083290;28;20058;-62
2022/12/18 14:14:51;;;;;;;30.55;12.00;;;;;;;-3.26;100.00;101466.44;5085591;28;20124;-62
2022/12/18 14:17:18;;;;;;;26.90;11.75;;;;;;;-3.40;100.00;101474.72;5083697;28;20032;-61
2022/12/18 14:19:48;;;;;;;29.90;11.65;;;;;;;-3.41;100.00;101459.13;5086688;28;20036;-62
2022/12/18 14:22:18;;;;;;;26.75;12.10;;;;;;;-3.59;100.00;101465.84;5082690;28;20036;-63
2022/12/18 14:24:44;;;;;;;19.00;10.32;;;;;;;-3.46;100.00;101472.31;5083020;28;20400;-60
2022/12/18 14:27:21;;;;;;;35.33;12.50;;;;;;;-3.49;100.00;101476.81;5083248;28;20031;-62
2022/12/18 14:29:46;;;;;;;24.02;11.75;;;;;;;-3.53;100.00;101463.03;5083688;28;20036;-63
2022/12/18 14:32:18;;;;;;;21.80;10.63;;;;;;;-3.44;100.00;101465.31;5083083;28;20427;-61
2022/12/18 14:34:49;;;;;;;24.73;10.45;;;;;;;-3.53;100.00;101472.59;5087067;28;20032;-62
2022/12/18 14:37:26;;;;;;;25.25;10.98;;;;;;;-3.55;100.00;101473.50;5094655;28;20143;-62
2022/12/18 14:39:57;;;;;;;25.30;10.35;;;;;;;-3.53;100.00;101475.19;5094255;28;20085;-62
2022/12/18 14:42:27;;;;;;;32.60;12.13;;;;;;;-3.50;100.00;101472.50;5092657;28;20042;-62
2022/12/18 14:45:31;;;;;;;20.52;11.10;;;;;;;-3.48;100.00;101470.69;5094177;28;20126;-61
2022/12/18 14:47:57;;;;;;;21.83;10.52;;;;;;;-3.47;100.00;101464.56;5092330;28;20492;-62
2022/12/18 14:50:23;;;;;;;34.38;10.68;;;;;;;-3.51;100.00;101469.03;5084147;28;20047;-62
2022/12/18 14:52:49;;;;;;;23.17;11.18;;;;;;;-3.56;100.00;101471.81;5085362;28;20032;-62
2022/12/18 14:55:19;;;;;;;19.27;10.65;;;;;;;-3.65;100.00;101471.25;5085484;28;20036;-62
2022/12/18 14:57:49;;;;;;;18.08;8.10;;;;;;;-3.64;100.00;101463.41;5084664;28;20090;-62
2022/12/18 15:00:18;;;;;;;28.80;11.60;;;;;;;-3.73;100.00;101458.50;5067164;28;20127;-62
2022/12/18 15:02:48;;;;;;;19.13;9.20;;;;;;;-3.72;100.00;101460.19;5085522;28;20072;-62
2022/12/18 15:05:13;;;;;;;23.23;10.10;;;;;;;-3.79;100.00;101453.50;5083272;28;20044;-62
2022/12/18 15:07:59;;;;;;;21.23;11.30;;;;;;;-4.02;100.00;101461.25;5084375;28;20050;-62
2022/12/18 15:10:27;;;;;;;23.65;9.40;;;;;;;-3.94;100.00;101456.63;5085099;28;20043;-62
2022/12/18 15:12:56;;;;;;;24.98;12.63;;;;;;;-3.97;100.00;101462.81;5082587;28;20067;-61
2022/12/18 15:15:36;;;;;;;28.52;11.60;;;;;;;-3.99;100.00;101467.19;5081005;28;20119;-61
2022/12/18 15:18:08;;;;;;;28.08;10.45;;;;;;;-4.03;100.00;101464.75;5080392;28;20043;-62
2022/12/18 15:20:43;;;;;;;23.05;9.20;;;;;;;-4.12;100.00;101458.09;5082298;28;20112;-62
2022/12/18 15:23:18;;;;;;;23.45;10.20;;;;;;;-4.07;100.00;101461.41;5082664;28;20035;-62
2022/12/18 15:25:44;;;;;;;23.20;8.93;;;;;;;-4.08;100.00;101457.09;5086309;28;20370;-62
2022/12/18 15:28:36;;;;;;;21.55;10.73;;;;;;;-4.14;100.00;101458.16;5090662;28;20023;-62
2022/12/18 15:31:14;;;;;;;24.25;9.27;;;;;;;-4.14;100.00;101463.34;5080162;28;20420;-62
2022/12/18 15:33:53;;;;;;;18.75;10.18;;;;;;;-4.13;100.00;101452.03;5093229;28;20093;-62
2022/12/18 15:36:22;;;;;;;25.67;10.07;;;;;;;-4.16;100.00;101449.56;5093774;28;20040;-60
2022/12/18 15:38:49;;;;;;;17.40;10.35;;;;;;;-4.22;100.00;101449.75;5092630;28;20036;-60
2022/12/18 15:41:16;;;;;;;28.98;11.88;;;;;;;-4.24;100.00;101454.16;5093186;28;20032;-59
2022/12/18 15:43:42;;;;;;;28.23;12.80;;;;;;;-4.24;100.00;101461.09;5093044;28;20352;-61
2022/12/18 15:46:15;;;;;;;24.35;10.50;;;;;;;-4.27;100.00;101456.00;5093070;28;20039;-60
2022/12/18 15:48:45;;;;;;;24.10;10.82;;;;;;;-4.29;100.00;101444.81;5093045;28;20032;-61
2022/12/18 15:51:24;;;;;;;18.45;8.82;;;;;;;-4.33;100.00;101440.59;5091166;28;20434;-62
2022/12/18 15:53:53;;;;;;;24.35;9.85;;;;;;;-4.33;100.00;101456.19;5092943;28;20459;-62
2022/12/18 15:59:10;;;;;;;20.33;9.40;;;;;;;-4.35;100.00;101464.06;5092606;28;20124;-62
2022/12/18 16:01:36;;;;;;;18.80;10.38;;;;;;;-4.40;100.00;101445.97;5092264;28;20032;-62
2022/12/18 16:04:01;;;;;;;23.67;10.60;;;;;;;-4.40;100.00;101448.59;5091582;28;20043;-62
2022/12/18 16:06:27;;;;;;;21.85;10.02;;;;;;;-4.35;100.00;101460.59;5091928;28;20115;-63
2022/12/18 16:08:52;;;;;;;22.90;8.93;;;;;;;-4.37;100.00;101456.31;5092682;28;20064;-62
2022/12/18 16:11:47;;;;;;;26.50;11.18;;;;;;;-4.39;100.00;101458.09;5090986;28;20024;-62
2022/12/18 16:14:25;;;;;;;24.77;12.90;;;;;;;-4.36;100.00;101462.34;5096223;28;20048;-61
2022/12/18 16:16:57;;;;;;;31.35;10.70;;;;;;;-4.42;100.00;101459.94;5093697;28;20120;-62
2022/12/18 16:19:23;;;;;;;27.08;12.30;;;;;;;-4.41;100.00;101449.50;5092523;28;20052;-61
2022/12/18 16:21:51;;;;;;;26.45;11.55;;;;;;;-4.43;100.00;101456.50;5090745;28;20031;-63
2022/12/18 16:24:24;;;;;;;33.28;12.15;;;;;;;-4.45;100.00;101453.06;5092387;28;20600;-62
2022/12/18 16:26:51;;;;;;;30.80;11.88;;;;;;;-4.46;100.00;101456.56;5092452;28;20126;-62
2022/12/18 16:29:17;;;;;;;35.10;15.07;;;;;;;-4.38;100.00;101456.34;5092330;28;20114;-61
2022/12/18 16:31:43;;;;;;;25.15;10.25;;;;;;;-4.44;100.00;101446.13;5091670;28;20061;-62
2022/12/18 16:34:25;;;;;;;25.20;9.85;;;;;;;-4.50;100.00;101455.00;5092222;28;20497;-62
2022/12/18 16:36:51;;;;;;;18.05;10.40;;;;;;;-4.51;100.00;101442.00;5092216;28;20048;-62
2022/12/18 16:39:20;;;;;;;32.30;13.35;;;;;;;-4.50;100.00;101443.72;5091420;28;20127;-64
2022/12/18 16:41:46;;;;;;;23.95;9.27;;;;;;;-4.50;100.00;101428.09;5092436;28;20039;-62
2022/12/18 16:44:13;;;;;;;28.02;11.25;;;;;;;-4.51;100.00;101442.00;5091051;28;20097;-63
2022/12/18 16:46:42;;;;;;;21.65;9.25;;;;;;;-4.56;100.00;101444.78;5092266;28;20067;-61
2022/12/18 16:49:08;;;;;;;24.08;12.05;;;;;;;-4.52;100.00;101450.72;5092066;28;20105;-63
2022/12/18 16:51:34;;;;;;;23.35;10.57;;;;;;;-4.58;100.00;101443.09;5091568;28;20030;-63
2022/12/18 16:53:59;;;;;;;29.08;13.50;;;;;;;-4.56;100.00;101443.94;5090670;28;20404;-63
2022/12/18 16:56:25;;;;;;;27.83;9.55;;;;;;;-4.62;100.00;101439.78;5091843;28;20051;-63
2022/12/18 16:58:52;;;;;;;26.02;13.27;;;;;;;-4.62;100.00;101444.97;5091828;28;20060;-67
2022/12/18 17:01:18;;;;;;;22.70;10.50;;;;;;;-4.71;100.00;101446.09;5091484;28;20020;-67